• Join FlightAware (Why Join?)
  • Login
  • US Flag 
12:25AM EDT


 

Airport Tracker/Info


-or-


 

Live Flight TrackerFlight Track Log ✈ DAL1283 ✈ 29-Apr-2013 ✈ KMSP - KIND

Flight Track Log - Related Links

Times and Time Zones

All times are in EDT time to prevent confusion due to time zone crossing. See the DAL1283 flight status page for this flight to view local times or setup timezone preferences in your user account.

Time Position Orientation Groundspeed Altitude Reporting Facility
EDT Latitude Longitude Course Direction KTS MPH feet Rate Location/Type
06:50PM 44.8500 -93.2333 120° Southeast 172 198 2,400  Level Minneapolis TRACON
06:51PM 44.8319 -93.2033 130° Southeast 197 227 3,100 2,760 Climbing Minneapolis Center
06:52PM 44.7822 -93.1300 134° Southeast 253 291 6,500 3,060 Climbing Minneapolis Center
06:53PM 44.6273 -92.8371 141° Southeast  Level Estimated
06:53PM 44.7364 -93.0375 125° Southeast 287 330 9,500  Level Minneapolis Center
06:54PM 44.5422 -92.7096 137° Southeast  Level Estimated
06:54PM 44.6775 -92.9381 130° Southeast 342 394 11,500  Level Minneapolis Center
06:55PM 44.4569 -92.5825 120° Southeast  Level Estimated
06:55PM 44.6000 -92.8250 134° Southeast 404 465 14,000  Level Minneapolis Center
06:56PM 44.5208 -92.7094 134° Southeast 409 471 17,600 3,000 Climbing Minneapolis Center
06:57PM 44.4397 -92.5933 134° Southeast 416 479 20,200 2,340 Climbing Minneapolis Center
06:58PM 44.3553 -92.4706 134° Southeast 436 502 22,500 2,220 Climbing Minneapolis Center
06:59PM 44.2711 -92.2897 123° Southeast 466 536 24,900 1,980 Climbing Minneapolis Center
07:00PM 44.2025 -92.1328 121° Southeast 476 548 26,600 2,040 Climbing Minneapolis Center
07:01PM 44.1347 -91.9764 121° Southeast 476 548 29,200 2,040 Climbing Minneapolis Center
07:02PM 44.0625 -91.8242 123° Southeast 474 545 30,900 1,560 Climbing Minneapolis Center
07:03PM 43.9714 -91.6942 134° Southeast 471 542 32,500 900 Climbing Minneapolis Center
07:04PM 43.8714 -91.5442 133° Southeast 473 544 33,000 180 Climbing Minneapolis Center
07:05PM 43.7653 -91.3883 133° Southeast 468 539 33,000  Level Minneapolis Center
07:06PM 43.6769 -91.2597 133° Southeast 466 536 33,000  Level Minneapolis Center
07:07PM 43.5889 -91.1328 134° Southeast 462 532 33,000  Level Minneapolis Center
07:08PM 43.5008 -91.0053 134° Southeast 461 531 33,000  Level Minneapolis Center
07:09PM 43.3931 -90.8531 134° Southeast 463 533 33,000  Level Minneapolis Center
07:10PM 43.3044 -90.7261 134° Southeast 463 533 33,000  Level Minneapolis Center
07:11PM 43.2150 -90.5989 134° Southeast 463 533 33,000  Level Minneapolis Center
07:12PM 43.1622 -90.5247 134° Southeast 465 535 33,000  Level Chicago Center
07:13PM 43.0717 -90.3981 134° Southeast 467 537 33,000  Level Chicago Center
07:14PM 42.9831 -90.2711 134° Southeast 466 536 33,000  Level Chicago Center
07:15PM 42.8742 -90.1169 134° Southeast 474 545 33,000  Level Chicago Center
07:16PM 42.7817 -89.9875 134° Southeast 477 549 33,000  Level Chicago Center
07:17PM 42.6925 -89.8650 135° Southeast 475 547 33,000  Level Chicago Center
07:18PM 42.5856 -89.7169 134° Southeast 471 542 33,000  Level Chicago Center
07:19PM 42.4933 -89.5906 135° Southeast 471 542 33,000  Level Chicago Center
07:20PM 42.4014 -89.4636 134° Southeast 472 543 33,000 -300 Level Chicago Center
07:21PM 42.3083 -89.3375 135° Southeast 474 545 32,400 -900 Descending Chicago Center
07:22PM 42.2153 -89.2139 135° Southeast 470 541 31,200 -720 Descending Chicago Center
07:23PM 42.1003 -89.0797 139° Southeast 469 540 31,000 -120 Descending Chicago Center
07:24PM 42.0167 -88.9817 139° Southeast 474 545 31,000  Level Chicago Center
07:25PM 41.8992 -88.8425 139° Southeast 473 544 31,000  Level Chicago Center
07:26PM 41.8019 -88.7278 139° Southeast 471 542 31,000  Level Chicago Center
07:27PM 41.7036 -88.6136 139° Southeast 471 542 31,000  Level Chicago Center
07:29PM 41.6061 -88.4981 138° Southeast 474 545 31,000 -420 Level Chicago Center
07:30PM 41.5083 -88.3850 139° Southeast 470 541 30,200 -1,020 Descending Chicago Center
07:31PM 41.3892 -88.2492 139° Southeast 479 551 29,000 -600 Descending Chicago Center
07:32PM 41.2908 -88.1361 139° Southeast 482 555 29,000  Level Chicago Center
07:33PM 41.1925 -88.0225 139° Southeast 482 555 29,000  Level Chicago Center
07:34PM 41.0728 -87.8861 139° Southeast 478 550 29,000  Level Chicago Center
07:35PM 40.9736 -87.7725 139° Southeast 477 549 29,000 -780 Level Chicago Center
07:36PM 40.8742 -87.6597 139° Southeast 474 545 27,500 -1,740 Descending Chicago Center
07:37PM 40.7742 -87.5469 139° Southeast 477 549 25,500 -1,860 Descending Chicago Center
07:38PM 40.6731 -87.4375 141° Southeast 473 544 23,700 -2,040 Descending Chicago Center
07:39PM 40.5558 -87.3078 140° Southeast 461 531 21,300 -2,280 Descending Chicago Center
07:40PM 40.4619 -87.1997 139° Southeast 454 522 19,100 -2,100 Descending Chicago Center
07:41PM 40.3792 -87.1092 140° Southeast 435 501 17,000 -2,340 Descending Chicago Center
07:42PM 40.2719 -86.9917 140° Southeast 428 493 14,300 -1,980 Descending Chicago Center
07:43PM 40.1822 -86.8931 140° Southeast 422 486 13,000 -1,020 Descending Chicago Center
07:44PM 40.1036 -86.7939 136° Southeast 393 452 12,200 -900 Descending Chicago Center
07:44PM 40.0792 -86.7617 135° Southeast 383 441 11,800 -1,440 Descending Indianapolis Center
07:45PM 40.0133 -86.6761 135° Southeast 343 395 10,300 -1,380 Descending Indianapolis Center
07:46PM 39.9508 -86.5947 135° Southeast 324 373 9,000 -1,440 Descending Indianapolis Center
07:47PM 39.8922 -86.5211 136° Southeast 301 346 7,400 -1,020 Descending Indianapolis Center
07:48PM 39.8256 -86.4339 135° Southeast 291 335 7,000 -540 Descending Indianapolis Center
07:50PM 39.7842 -86.3475 122° Southeast 292 336 6,400 -1,260 Descending Indianapolis Center
07:51PM 39.8311 -86.2669 53° Northeast 277 319 4,500 -1,500 Descending Indianapolis Center
07:52PM 39.8361 -86.1942 85° East 245 282 3,400 -900 Descending Indianapolis Center
07:53PM 39.7864 -86.1942 180° South 212 244 2,700 -720 Descending Indianapolis Center